sensor_id;sensor_type;location;lat;lon;timestamp;pressure;altitude;pressure_sealevel;temperature
20103;BMP180;10210;52.284;9.892;2024-01-16T00:01:43;99194.00;;;5.30
20103;BMP180;10210;52.284;9.892;2024-01-16T00:04:10;99200.00;;;5.30
20103;BMP180;10210;52.284;9.892;2024-01-16T00:06:42;99211.00;;;5.30
20103;BMP180;10210;52.284;9.892;2024-01-16T00:09:08;99201.00;;;5.30
20103;BMP180;10210;52.284;9.892;2024-01-16T00:11:43;99216.00;;;5.30
20103;BMP180;10210;52.284;9.892;2024-01-16T00:14:09;99217.00;;;5.30
20103;BMP180;10210;52.284;9.892;2024-01-16T00:16:47;99218.00;;;5.30
20103;BMP180;10210;52.284;9.892;2024-01-16T00:19:14;99218.00;;;5.30
20103;BMP180;10210;52.284;9.892;2024-01-16T00:21:44;99225.00;;;5.30
20103;BMP180;10210;52.284;9.892;2024-01-16T00:24:16;99228.00;;;5.30
20103;BMP180;10210;52.284;9.892;2024-01-16T00:26:42;99226.00;;;5.30
20103;BMP180;10210;52.284;9.892;2024-01-16T00:29:08;99233.00;;;5.30
20103;BMP180;10210;52.284;9.892;2024-01-16T00:31:38;99236.00;;;5.30
20103;BMP180;10210;52.284;9.892;2024-01-16T00:34:04;99229.00;;;5.30
20103;BMP180;10210;52.284;9.892;2024-01-16T00:36:30;99235.00;;;5.30
20103;BMP180;10210;52.284;9.892;2024-01-16T00:38:56;99254.00;;;5.30
20103;BMP180;10210;52.284;9.892;2024-01-16T00:41:22;99232.00;;;5.30
20103;BMP180;10210;52.284;9.892;2024-01-16T00:43:48;99261.00;;;5.20
20103;BMP180;10210;52.284;9.892;2024-01-16T00:46:14;99256.00;;;5.20
20103;BMP180;10210;52.284;9.892;2024-01-16T00:48:39;99261.00;;;5.20
20103;BMP180;10210;52.284;9.892;2024-01-16T00:51:05;99275.00;;;5.20
20103;BMP180;10210;52.284;9.892;2024-01-16T00:53:31;99269.00;;;5.20
20103;BMP180;10210;52.284;9.892;2024-01-16T00:55:57;99282.00;;;5.20
20103;BMP180;10210;52.284;9.892;2024-01-16T00:58:23;99286.00;;;5.30
20103;BMP180;10210;52.284;9.892;2024-01-16T01:00:49;99283.00;;;5.30
20103;BMP180;10210;52.284;9.892;2024-01-16T01:03:15;99285.00;;;5.30
20103;BMP180;10210;52.284;9.892;2024-01-16T01:05:41;99289.00;;;5.30
20103;BMP180;10210;52.284;9.892;2024-01-16T01:08:07;99290.00;;;5.30
20103;BMP180;10210;52.284;9.892;2024-01-16T01:10:33;99297.00;;;5.30
20103;BMP180;10210;52.284;9.892;2024-01-16T01:12:59;99287.00;;;5.30
20103;BMP180;10210;52.284;9.892;2024-01-16T01:15:24;99297.00;;;5.30
20103;BMP180;10210;52.284;9.892;2024-01-16T01:17:51;99289.00;;;5.30
20103;BMP180;10210;52.284;9.892;2024-01-16T01:20:18;99295.00;;;5.30
20103;BMP180;10210;52.284;9.892;2024-01-16T01:22:44;99304.00;;;5.30
20103;BMP180;10210;52.284;9.892;2024-01-16T01:25:11;99304.00;;;5.30
20103;BMP180;10210;52.284;9.892;2024-01-16T01:27:38;99309.00;;;5.30
20103;BMP180;10210;52.284;9.892;2024-01-16T01:30:07;99319.00;;;5.30
20103;BMP180;10210;52.284;9.892;2024-01-16T01:32:37;99324.00;;;5.30
20103;BMP180;10210;52.284;9.892;2024-01-16T01:35:04;99327.00;;;5.30
20103;BMP180;10210;52.284;9.892;2024-01-16T01:37:30;99319.00;;;5.30
20103;BMP180;10210;52.284;9.892;2024-01-16T01:39:56;99320.00;;;5.30
20103;BMP180;10210;52.284;9.892;2024-01-16T01:42:22;99320.00;;;5.20
20103;BMP180;10210;52.284;9.892;2024-01-16T01:44:48;99318.00;;;5.20
20103;BMP180;10210;52.284;9.892;2024-01-16T01:47:14;99312.00;;;5.20
20103;BMP180;10210;52.284;9.892;2024-01-16T01:49:41;99317.00;;;5.20
20103;BMP180;10210;52.284;9.892;2024-01-16T01:52:07;99323.00;;;5.20
20103;BMP180;10210;52.284;9.892;2024-01-16T01:54:36;99327.00;;;5.20
20103;BMP180;10210;52.284;9.892;2024-01-16T01:57:03;99335.00;;;5.10
20103;BMP180;10210;52.284;9.892;2024-01-16T01:59:32;99342.00;;;5.10
20103;BMP180;10210;52.284;9.892;2024-01-16T02:01:59;99343.00;;;5.10
20103;BMP180;10210;52.284;9.892;2024-01-16T02:04:28;99351.00;;;5.10
20103;BMP180;10210;52.284;9.892;2024-01-16T02:06:55;99353.00;;;5.10
20103;BMP180;10210;52.284;9.892;2024-01-16T02:09:22;99347.00;;;5.00
20103;BMP180;10210;52.284;9.892;2024-01-16T02:11:48;99354.00;;;5.00
20103;BMP180;10210;52.284;9.892;2024-01-16T02:14:13;99349.00;;;5.00
20103;BMP180;10210;52.284;9.892;2024-01-16T02:16:42;99357.00;;;5.10
20103;BMP180;10210;52.284;9.892;2024-01-16T02:19:10;99351.00;;;5.10
20103;BMP180;10210;52.284;9.892;2024-01-16T02:21:43;99353.00;;;5.00
20103;BMP180;10210;52.284;9.892;2024-01-16T02:24:13;99348.00;;;5.10
20103;BMP180;10210;52.284;9.892;2024-01-16T02:26:39;99362.00;;;5.10
20103;BMP180;10210;52.284;9.892;2024-01-16T02:29:05;99364.00;;;5.10
20103;BMP180;10210;52.284;9.892;2024-01-16T02:31:33;99374.00;;;5.10
20103;BMP180;10210;52.284;9.892;2024-01-16T02:34:00;99365.00;;;5.10
20103;BMP180;10210;52.284;9.892;2024-01-16T02:36:26;99364.00;;;5.10
20103;BMP180;10210;52.284;9.892;2024-01-16T02:38:52;99366.00;;;5.10
20103;BMP180;10210;52.284;9.892;2024-01-16T02:41:18;99367.00;;;5.10
20103;BMP180;10210;52.284;9.892;2024-01-16T02:43:44;99356.00;;;5.10
20103;BMP180;10210;52.284;9.892;2024-01-16T02:46:10;99367.00;;;5.10
20103;BMP180;10210;52.284;9.892;2024-01-16T02:48:37;99366.00;;;5.00
20103;BMP180;10210;52.284;9.892;2024-01-16T02:51:03;99373.00;;;5.00
20103;BMP180;10210;52.284;9.892;2024-01-16T02:53:30;99383.00;;;5.00
20103;BMP180;10210;52.284;9.892;2024-01-16T02:55:56;99387.00;;;5.00
20103;BMP180;10210;52.284;9.892;2024-01-16T02:58:26;99386.00;;;5.00
20103;BMP180;10210;52.284;9.892;2024-01-16T03:00:52;99394.00;;;5.00
20103;BMP180;10210;52.284;9.892;2024-01-16T03:03:18;99400.00;;;4.90
20103;BMP180;10210;52.284;9.892;2024-01-16T03:05:44;99404.00;;;4.90
20103;BMP180;10210;52.284;9.892;2024-01-16T03:08:10;99399.00;;;4.90
20103;BMP180;10210;52.284;9.892;2024-01-16T03:10:36;99409.00;;;4.90
20103;BMP180;10210;52.284;9.892;2024-01-16T03:13:02;99404.00;;;4.90
20103;BMP180;10210;52.284;9.892;2024-01-16T03:15:28;99411.00;;;4.90
20103;BMP180;10210;52.284;9.892;2024-01-16T03:17:57;99411.00;;;4.90
20103;BMP180;10210;52.284;9.892;2024-01-16T03:20:22;99415.00;;;4.90
20103;BMP180;10210;52.284;9.892;2024-01-16T03:22:50;99415.00;;;4.90
20103;BMP180;10210;52.284;9.892;2024-01-16T03:25:19;99408.00;;;4.90
20103;BMP180;10210;52.284;9.892;2024-01-16T03:27:45;99419.00;;;4.90
20103;BMP180;10210;52.284;9.892;2024-01-16T03:30:11;99416.00;;;4.90
20103;BMP180;10210;52.284;9.892;2024-01-16T03:32:37;99419.00;;;4.90
20103;BMP180;10210;52.284;9.892;2024-01-16T03:35:04;99425.00;;;4.90
20103;BMP180;10210;52.284;9.892;2024-01-16T03:37:30;99430.00;;;4.90
20103;BMP180;10210;52.284;9.892;2024-01-16T03:39:56;99425.00;;;4.90
20103;BMP180;10210;52.284;9.892;2024-01-16T03:42:23;99435.00;;;4.80
20103;BMP180;10210;52.284;9.892;2024-01-16T03:44:48;99439.00;;;4.80
20103;BMP180;10210;52.284;9.892;2024-01-16T03:47:15;99432.00;;;4.80
20103;BMP180;10210;52.284;9.892;2024-01-16T03:49:41;99443.00;;;4.80
20103;BMP180;10210;52.284;9.892;2024-01-16T03:52:06;99447.00;;;4.80
20103;BMP180;10210;52.284;9.892;2024-01-16T03:54:32;99444.00;;;4.80
20103;BMP180;10210;52.284;9.892;2024-01-16T03:56:58;99443.00;;;4.80
20103;BMP180;10210;52.284;9.892;2024-01-16T03:59:24;99465.00;;;4.80
20103;BMP180;10210;52.284;9.892;2024-01-16T04:01:50;99456.00;;;4.70
20103;BMP180;10210;52.284;9.892;2024-01-16T04:04:16;99456.00;;;4.70
20103;BMP180;10210;52.284;9.892;2024-01-16T04:06:42;99457.00;;;4.70
20103;BMP180;10210;52.284;9.892;2024-01-16T04:09:09;99449.00;;;4.80
20103;BMP180;10210;52.284;9.892;2024-01-16T04:11:35;99458.00;;;4.80
20103;BMP180;10210;52.284;9.892;2024-01-16T04:14:01;99457.00;;;4.80
20103;BMP180;10210;52.284;9.892;2024-01-16T04:16:28;99459.00;;;4.80
20103;BMP180;10210;52.284;9.892;2024-01-16T04:18:53;99458.00;;;4.80
20103;BMP180;10210;52.284;9.892;2024-01-16T04:21:19;99468.00;;;4.80
20103;BMP180;10210;52.284;9.892;2024-01-16T04:23:45;99457.00;;;4.80
20103;BMP180;10210;52.284;9.892;2024-01-16T04:26:10;99455.00;;;4.80
20103;BMP180;10210;52.284;9.892;2024-01-16T04:28:36;99461.00;;;4.70
20103;BMP180;10210;52.284;9.892;2024-01-16T04:31:05;99462.00;;;4.70
20103;BMP180;10210;52.284;9.892;2024-01-16T04:33:31;99458.00;;;4.70
20103;BMP180;10210;52.284;9.892;2024-01-16T04:35:57;99468.00;;;4.70
20103;BMP180;10210;52.284;9.892;2024-01-16T04:38:23;99462.00;;;4.70
20103;BMP180;10210;52.284;9.892;2024-01-16T04:40:50;99467.00;;;4.70
20103;BMP180;10210;52.284;9.892;2024-01-16T04:43:15;99466.00;;;4.70
20103;BMP180;10210;52.284;9.892;2024-01-16T04:45:41;99465.00;;;4.70
20103;BMP180;10210;52.284;9.892;2024-01-16T04:48:07;99458.00;;;4.70
20103;BMP180;10210;52.284;9.892;2024-01-16T04:50:34;99464.00;;;4.80
20103;BMP180;10210;52.284;9.892;2024-01-16T04:53:01;99460.00;;;4.70
20103;BMP180;10210;52.284;9.892;2024-01-16T04:55:31;99473.00;;;4.80
20103;BMP180;10210;52.284;9.892;2024-01-16T04:57:57;99473.00;;;4.80
20103;BMP180;10210;52.284;9.892;2024-01-16T05:00:23;99476.00;;;4.80
20103;BMP180;10210;52.284;9.892;2024-01-16T05:02:50;99477.00;;;4.80
20103;BMP180;10210;52.284;9.892;2024-01-16T05:05:17;99475.00;;;4.80
20103;BMP180;10210;52.284;9.892;2024-01-16T05:07:42;99475.00;;;4.80
20103;BMP180;10210;52.284;9.892;2024-01-16T05:10:12;99480.00;;;4.80
20103;BMP180;10210;52.284;9.892;2024-01-16T05:12:41;99472.00;;;4.80
20103;BMP180;10210;52.284;9.892;2024-01-16T05:15:08;99472.00;;;4.80
20103;BMP180;10210;52.284;9.892;2024-01-16T05:17:34;99472.00;;;4.80
20103;BMP180;10210;52.284;9.892;2024-01-16T05:20:01;99474.00;;;4.80
20103;BMP180;10210;52.284;9.892;2024-01-16T05:22:29;99483.00;;;4.80
20103;BMP180;10210;52.284;9.892;2024-01-16T05:24:55;99471.00;;;4.80
20103;BMP180;10210;52.284;9.892;2024-01-16T05:27:20;99483.00;;;4.80
20103;BMP180;10210;52.284;9.892;2024-01-16T05:29:46;99479.00;;;4.80
20103;BMP180;10210;52.284;9.892;2024-01-16T05:32:13;99484.00;;;4.80
20103;BMP180;10210;52.284;9.892;2024-01-16T05:34:39;99476.00;;;4.80
20103;BMP180;10210;52.284;9.892;2024-01-16T05:37:05;99479.00;;;4.80
20103;BMP180;10210;52.284;9.892;2024-01-16T05:39:31;99478.00;;;4.80
20103;BMP180;10210;52.284;9.892;2024-01-16T05:41:57;99483.00;;;4.80
20103;BMP180;10210;52.284;9.892;2024-01-16T05:44:22;99482.00;;;4.80
20103;BMP180;10210;52.284;9.892;2024-01-16T05:46:48;99488.00;;;4.70
20103;BMP180;10210;52.284;9.892;2024-01-16T05:49:14;99487.00;;;4.70
20103;BMP180;10210;52.284;9.892;2024-01-16T05:51:39;99485.00;;;4.70
20103;BMP180;10210;52.284;9.892;2024-01-16T05:54:05;99471.00;;;4.70
20103;BMP180;10210;52.284;9.892;2024-01-16T05:56:31;99490.00;;;4.70
20103;BMP180;10210;52.284;9.892;2024-01-16T05:58:57;99489.00;;;4.70
20103;BMP180;10210;52.284;9.892;2024-01-16T06:01:23;99488.00;;;4.70
20103;BMP180;10210;52.284;9.892;2024-01-16T06:03:48;99495.00;;;4.70
20103;BMP180;10210;52.284;9.892;2024-01-16T06:06:14;99486.00;;;4.70
20103;BMP180;10210;52.284;9.892;2024-01-16T06:08:40;99477.00;;;4.70
20103;BMP180;10210;52.284;9.892;2024-01-16T06:11:06;99484.00;;;4.80
20103;BMP180;10210;52.284;9.892;2024-01-16T06:13:31;99491.00;;;4.80
20103;BMP180;10210;52.284;9.892;2024-01-16T06:15:58;99481.00;;;4.80
20103;BMP180;10210;52.284;9.892;2024-01-16T06:18:24;99485.00;;;4.80
20103;BMP180;10210;52.284;9.892;2024-01-16T06:20:50;99483.00;;;4.80
20103;BMP180;10210;52.284;9.892;2024-01-16T06:23:16;99478.00;;;4.80
20103;BMP180;10210;52.284;9.892;2024-01-16T06:25:41;99488.00;;;4.80
20103;BMP180;10210;52.284;9.892;2024-01-16T06:28:07;99477.00;;;4.80
20103;BMP180;10210;52.284;9.892;2024-01-16T06:30:32;99477.00;;;4.80
20103;BMP180;10210;52.284;9.892;2024-01-16T06:32:58;99480.00;;;4.80
20103;BMP180;10210;52.284;9.892;2024-01-16T06:35:24;99483.00;;;4.90
20103;BMP180;10210;52.284;9.892;2024-01-16T06:37:50;99489.00;;;4.90
20103;BMP180;10210;52.284;9.892;2024-01-16T06:40:16;99486.00;;;4.80
20103;BMP180;10210;52.284;9.892;2024-01-16T06:42:41;99486.00;;;4.80
20103;BMP180;10210;52.284;9.892;2024-01-16T06:45:07;99483.00;;;4.80
20103;BMP180;10210;52.284;9.892;2024-01-16T06:47:33;99483.00;;;4.80
20103;BMP180;10210;52.284;9.892;2024-01-16T06:49:59;99491.00;;;4.80
20103;BMP180;10210;52.284;9.892;2024-01-16T06:52:24;99501.00;;;4.80
20103;BMP180;10210;52.284;9.892;2024-01-16T06:54:50;99495.00;;;4.80
20103;BMP180;10210;52.284;9.892;2024-01-16T06:57:16;99499.00;;;4.80
20103;BMP180;10210;52.284;9.892;2024-01-16T06:59:42;99494.00;;;4.80
20103;BMP180;10210;52.284;9.892;2024-01-16T07:02:07;99486.00;;;4.80
20103;BMP180;10210;52.284;9.892;2024-01-16T07:04:34;99504.00;;;4.80
20103;BMP180;10210;52.284;9.892;2024-01-16T07:06:59;99504.00;;;4.80
20103;BMP180;10210;52.284;9.892;2024-01-16T07:09:26;99505.00;;;4.80
20103;BMP180;10210;52.284;9.892;2024-01-16T07:11:53;99513.00;;;4.90
20103;BMP180;10210;52.284;9.892;2024-01-16T07:14:19;99509.00;;;4.80
20103;BMP180;10210;52.284;9.892;2024-01-16T07:16:46;99511.00;;;4.80
20103;BMP180;10210;52.284;9.892;2024-01-16T07:19:11;99516.00;;;4.90
20103;BMP180;10210;52.284;9.892;2024-01-16T07:21:37;99519.00;;;4.80
20103;BMP180;10210;52.284;9.892;2024-01-16T07:24:04;99512.00;;;4.80
20103;BMP180;10210;52.284;9.892;2024-01-16T07:26:30;99523.00;;;4.80
20103;BMP180;10210;52.284;9.892;2024-01-16T07:28:55;99515.00;;;4.80
20103;BMP180;10210;52.284;9.892;2024-01-16T07:31:21;99515.00;;;4.80
20103;BMP180;10210;52.284;9.892;2024-01-16T07:33:47;99509.00;;;4.80
20103;BMP180;10210;52.284;9.892;2024-01-16T07:36:14;99513.00;;;4.80
20103;BMP180;10210;52.284;9.892;2024-01-16T07:38:39;99513.00;;;4.80
20103;BMP180;10210;52.284;9.892;2024-01-16T07:41:05;99514.00;;;4.80
20103;BMP180;10210;52.284;9.892;2024-01-16T07:43:31;99518.00;;;4.80
20103;BMP180;10210;52.284;9.892;2024-01-16T07:45:58;99517.00;;;4.80
20103;BMP180;10210;52.284;9.892;2024-01-16T07:48:23;99515.00;;;4.80
20103;BMP180;10210;52.284;9.892;2024-01-16T07:50:50;99515.00;;;4.70
20103;BMP180;10210;52.284;9.892;2024-01-16T07:53:16;99518.00;;;4.80
20103;BMP180;10210;52.284;9.892;2024-01-16T07:55:43;99514.00;;;4.80
20103;BMP180;10210;52.284;9.892;2024-01-16T07:58:13;99533.00;;;4.80
20103;BMP180;10210;52.284;9.892;2024-01-16T08:00:39;99514.00;;;4.80
20103;BMP180;10210;52.284;9.892;2024-01-16T08:03:08;99528.00;;;4.80
20103;BMP180;10210;52.284;9.892;2024-01-16T08:05:37;99524.00;;;4.80
20103;BMP180;10210;52.284;9.892;2024-01-16T08:08:04;99532.00;;;4.80
20103;BMP180;10210;52.284;9.892;2024-01-16T08:10:29;99519.00;;;4.80
20103;BMP180;10210;52.284;9.892;2024-01-16T08:12:55;99527.00;;;4.80
20103;BMP180;10210;52.284;9.892;2024-01-16T08:15:21;99535.00;;;4.80
20103;BMP180;10210;52.284;9.892;2024-01-16T08:17:47;99524.00;;;4.80
20103;BMP180;10210;52.284;9.892;2024-01-16T08:20:13;99525.00;;;4.80
20103;BMP180;10210;52.284;9.892;2024-01-16T08:22:39;99537.00;;;4.80
20103;BMP180;10210;52.284;9.892;2024-01-16T08:25:05;99532.00;;;4.80
20103;BMP180;10210;52.284;9.892;2024-01-16T08:27:31;99531.00;;;4.80
20103;BMP180;10210;52.284;9.892;2024-01-16T08:29:57;99526.00;;;4.80
20103;BMP180;10210;52.284;9.892;2024-01-16T08:32:22;99539.00;;;4.80
20103;BMP180;10210;52.284;9.892;2024-01-16T08:34:48;99533.00;;;4.80
20103;BMP180;10210;52.284;9.892;2024-01-16T08:37:14;99529.00;;;4.90
20103;BMP180;10210;52.284;9.892;2024-01-16T08:39:40;99529.00;;;4.90
20103;BMP180;10210;52.284;9.892;2024-01-16T08:42:05;99529.00;;;4.90
20103;BMP180;10210;52.284;9.892;2024-01-16T08:44:31;99542.00;;;4.90
20103;BMP180;10210;52.284;9.892;2024-01-16T08:46:57;99540.00;;;4.90
20103;BMP180;10210;52.284;9.892;2024-01-16T08:49:24;99534.00;;;5.00
20103;BMP180;10210;52.284;9.892;2024-01-16T08:51:50;99537.00;;;5.00
20103;BMP180;10210;52.284;9.892;2024-01-16T08:54:16;99536.00;;;5.00
20103;BMP180;10210;52.284;9.892;2024-01-16T08:56:41;99541.00;;;5.00
20103;BMP180;10210;52.284;9.892;2024-01-16T08:59:07;99534.00;;;5.00
20103;BMP180;10210;52.284;9.892;2024-01-16T09:01:33;99539.00;;;5.00
20103;BMP180;10210;52.284;9.892;2024-01-16T09:03:59;99537.00;;;5.00
20103;BMP180;10210;52.284;9.892;2024-01-16T09:06:25;99536.00;;;5.10
20103;BMP180;10210;52.284;9.892;2024-01-16T09:08:50;99536.00;;;5.10
20103;BMP180;10210;52.284;9.892;2024-01-16T09:11:16;99536.00;;;5.10
20103;BMP180;10210;52.284;9.892;2024-01-16T09:13:42;99539.00;;;5.10
20103;BMP180;10210;52.284;9.892;2024-01-16T09:16:08;99544.00;;;5.10
20103;BMP180;10210;52.284;9.892;2024-01-16T09:18:33;99553.00;;;5.20
20103;BMP180;10210;52.284;9.892;2024-01-16T09:20:59;99545.00;;;5.20
20103;BMP180;10210;52.284;9.892;2024-01-16T09:23:24;99539.00;;;5.30
20103;BMP180;10210;52.284;9.892;2024-01-16T09:25:50;99545.00;;;5.30
20103;BMP180;10210;52.284;9.892;2024-01-16T09:28:16;99549.00;;;5.40
20103;BMP180;10210;52.284;9.892;2024-01-16T09:30:42;99542.00;;;5.50
20103;BMP180;10210;52.284;9.892;2024-01-16T09:33:08;99538.00;;;5.60
20103;BMP180;10210;52.284;9.892;2024-01-16T09:35:36;99541.00;;;5.70
20103;BMP180;10210;52.284;9.892;2024-01-16T09:38:02;99546.00;;;5.70
20103;BMP180;10210;52.284;9.892;2024-01-16T09:40:27;99545.00;;;5.80
20103;BMP180;10210;52.284;9.892;2024-01-16T09:42:54;99548.00;;;5.90
20103;BMP180;10210;52.284;9.892;2024-01-16T09:45:20;99547.00;;;6.00
20103;BMP180;10210;52.284;9.892;2024-01-16T09:47:51;99547.00;;;6.10
20103;BMP180;10210;52.284;9.892;2024-01-16T09:50:18;99546.00;;;6.10
20103;BMP180;10210;52.284;9.892;2024-01-16T09:52:47;99556.00;;;6.20
20103;BMP180;10210;52.284;9.892;2024-01-16T09:55:14;99545.00;;;6.30
20103;BMP180;10210;52.284;9.892;2024-01-16T09:57:41;99552.00;;;6.30
20103;BMP180;10210;52.284;9.892;2024-01-16T10:00:10;99550.00;;;6.40
20103;BMP180;10210;52.284;9.892;2024-01-16T10:02:41;99552.00;;;6.40
20103;BMP180;10210;52.284;9.892;2024-01-16T10:05:11;99556.00;;;6.50
20103;BMP180;10210;52.284;9.892;2024-01-16T10:07:42;99562.00;;;6.50
20103;BMP180;10210;52.284;9.892;2024-01-16T10:10:11;99552.00;;;6.50
20103;BMP180;10210;52.284;9.892;2024-01-16T10:12:39;99563.00;;;6.60
20103;BMP180;10210;52.284;9.892;2024-01-16T10:15:07;99562.00;;;6.60
20103;BMP180;10210;52.284;9.892;2024-01-16T10:17:41;99553.00;;;6.60
20103;BMP180;10210;52.284;9.892;2024-01-16T10:20:10;99543.00;;;6.60
20103;BMP180;10210;52.284;9.892;2024-01-16T10:22:40;99550.00;;;6.60
20103;BMP180;10210;52.284;9.892;2024-01-16T10:25:07;99553.00;;;6.60
20103;BMP180;10210;52.284;9.892;2024-01-16T10:27:35;99554.00;;;6.60
20103;BMP180;10210;52.284;9.892;2024-01-16T10:30:01;99562.00;;;6.60
20103;BMP180;10210;52.284;9.892;2024-01-16T10:32:34;99557.00;;;6.60
20103;BMP180;10210;52.284;9.892;2024-01-16T10:35:08;99553.00;;;6.60
20103;BMP180;10210;52.284;9.892;2024-01-16T10:37:46;99553.00;;;6.50
20103;BMP180;10210;52.284;9.892;2024-01-16T10:40:20;99572.00;;;6.50
20103;BMP180;10210;52.284;9.892;2024-01-16T10:43:05;99564.00;;;6.40
20103;BMP180;10210;52.284;9.892;2024-01-16T10:45:32;99565.00;;;6.40
20103;BMP180;10210;52.284;9.892;2024-01-16T10:48:07;99564.00;;;6.30
20103;BMP180;10210;52.284;9.892;2024-01-16T10:50:36;99557.00;;;6.30
20103;BMP180;10210;52.284;9.892;2024-01-16T10:53:07;99555.00;;;6.30
20103;BMP180;10210;52.284;9.892;2024-01-16T10:55:52;99562.00;;;6.20
20103;BMP180;10210;52.284;9.892;2024-01-16T10:58:22;99555.00;;;6.20
20103;BMP180;10210;52.284;9.892;2024-01-16T11:00:53;99561.00;;;6.20
20103;BMP180;10210;52.284;9.892;2024-01-16T11:03:40;99551.00;;;6.20
20103;BMP180;10210;52.284;9.892;2024-01-16T11:06:07;99567.00;;;6.20
20103;BMP180;10210;52.284;9.892;2024-01-16T11:08:37;99557.00;;;6.20
20103;BMP180;10210;52.284;9.892;2024-01-16T11:11:04;99571.00;;;6.10
20103;BMP180;10210;52.284;9.892;2024-01-16T11:13:35;99576.00;;;6.20
20103;BMP180;10210;52.284;9.892;2024-01-16T11:16:03;99573.00;;;6.20
20103;BMP180;10210;52.284;9.892;2024-01-16T11:18:31;99564.00;;;6.20
20103;BMP180;10210;52.284;9.892;2024-01-16T11:20:59;99563.00;;;6.20
20103;BMP180;10210;52.284;9.892;2024-01-16T11:23:25;99578.00;;;6.20
20103;BMP180;10210;52.284;9.892;2024-01-16T11:25:51;99576.00;;;6.20
20103;BMP180;10210;52.284;9.892;2024-01-16T11:28:17;99567.00;;;6.20
20103;BMP180;10210;52.284;9.892;2024-01-16T11:30:44;99570.00;;;6.20
20103;BMP180;10210;52.284;9.892;2024-01-16T11:35:57;99569.00;;;6.20
20103;BMP180;10210;52.284;9.892;2024-01-16T11:38:25;99572.00;;;6.20
20103;BMP180;10210;52.284;9.892;2024-01-16T11:40:58;99562.00;;;6.30
20103;BMP180;10210;52.284;9.892;2024-01-16T11:45:59;99560.00;;;6.30
20103;BMP180;10210;52.284;9.892;2024-01-16T11:48:25;99560.00;;;6.30
20103;BMP180;10210;52.284;9.892;2024-01-16T11:50:53;99574.00;;;6.30
20103;BMP180;10210;52.284;9.892;2024-01-16T11:53:39;99560.00;;;6.20
20103;BMP180;10210;52.284;9.892;2024-01-16T11:56:35;99573.00;;;6.20
20103;BMP180;10210;52.284;9.892;2024-01-16T12:02:07;99576.00;;;6.20
20103;BMP180;10210;52.284;9.892;2024-01-16T12:04:34;99578.00;;;6.20
20103;BMP180;10210;52.284;9.892;2024-01-16T12:07:00;99573.00;;;6.20
20103;BMP180;10210;52.284;9.892;2024-01-16T12:09:27;99567.00;;;6.20
20103;BMP180;10210;52.284;9.892;2024-01-16T12:12:01;99562.00;;;6.30
20103;BMP180;10210;52.284;9.892;2024-01-16T12:14:28;99555.00;;;6.30
20103;BMP180;10210;52.284;9.892;2024-01-16T12:17:11;99547.00;;;6.30
20103;BMP180;10210;52.284;9.892;2024-01-16T12:19:38;99554.00;;;6.30
20103;BMP180;10210;52.284;9.892;2024-01-16T12:22:08;99555.00;;;6.30
20103;BMP180;10210;52.284;9.892;2024-01-16T12:24:36;99565.00;;;6.30
20103;BMP180;10210;52.284;9.892;2024-01-16T12:27:03;99555.00;;;6.30
20103;BMP180;10210;52.284;9.892;2024-01-16T12:29:29;99565.00;;;6.30
20103;BMP180;10210;52.284;9.892;2024-01-16T12:32:12;99571.00;;;6.30
20103;BMP180;10210;52.284;9.892;2024-01-16T12:34:48;99573.00;;;6.20
20103;BMP180;10210;52.284;9.892;2024-01-16T12:37:14;99567.00;;;6.20
20103;BMP180;10210;52.284;9.892;2024-01-16T12:39:40;99567.00;;;6.20
20103;BMP180;10210;52.284;9.892;2024-01-16T12:42:09;99565.00;;;6.20
20103;BMP180;10210;52.284;9.892;2024-01-16T12:44:36;99562.00;;;6.20
20103;BMP180;10210;52.284;9.892;2024-01-16T12:47:02;99556.00;;;6.30
20103;BMP180;10210;52.284;9.892;2024-01-16T12:49:28;99553.00;;;6.30
20103;BMP180;10210;52.284;9.892;2024-01-16T12:52:17;99548.00;;;6.20
20103;BMP180;10210;52.284;9.892;2024-01-16T12:54:48;99552.00;;;6.20
20103;BMP180;10210;52.284;9.892;2024-01-16T12:57:19;99537.00;;;6.20
20103;BMP180;10210;52.284;9.892;2024-01-16T12:59:46;99548.00;;;6.20
20103;BMP180;10210;52.284;9.892;2024-01-16T13:02:32;99547.00;;;6.20
20103;BMP180;10210;52.284;9.892;2024-01-16T13:05:00;99546.00;;;6.20
20103;BMP180;10210;52.284;9.892;2024-01-16T13:07:28;99541.00;;;6.20
20103;BMP180;10210;52.284;9.892;2024-01-16T13:10:13;99533.00;;;6.10
20103;BMP180;10210;52.284;9.892;2024-01-16T13:12:42;99533.00;;;6.10
20103;BMP180;10210;52.284;9.892;2024-01-16T13:15:07;99530.00;;;6.10
20103;BMP180;10210;52.284;9.892;2024-01-16T13:17:34;99524.00;;;6.20
20103;BMP180;10210;52.284;9.892;2024-01-16T13:20:01;99518.00;;;6.20
20103;BMP180;10210;52.284;9.892;2024-01-16T13:22:28;99516.00;;;6.20
20103;BMP180;10210;52.284;9.892;2024-01-16T13:24:54;99517.00;;;6.20
20103;BMP180;10210;52.284;9.892;2024-01-16T13:27:21;99519.00;;;6.20
20103;BMP180;10210;52.284;9.892;2024-01-16T13:29:47;99517.00;;;6.20
20103;BMP180;10210;52.284;9.892;2024-01-16T13:32:13;99512.00;;;6.20
20103;BMP180;10210;52.284;9.892;2024-01-16T13:34:39;99508.00;;;6.10
20103;BMP180;10210;52.284;9.892;2024-01-16T13:37:05;99512.00;;;6.20
20103;BMP180;10210;52.284;9.892;2024-01-16T13:39:30;99513.00;;;6.10
20103;BMP180;10210;52.284;9.892;2024-01-16T13:42:01;99509.00;;;6.10
20103;BMP180;10210;52.284;9.892;2024-01-16T13:44:31;99505.00;;;6.10
20103;BMP180;10210;52.284;9.892;2024-01-16T13:46:56;99498.00;;;6.10
20103;BMP180;10210;52.284;9.892;2024-01-16T13:49:22;99502.00;;;6.10
20103;BMP180;10210;52.284;9.892;2024-01-16T13:51:48;99501.00;;;6.10
20103;BMP180;10210;52.284;9.892;2024-01-16T13:54:13;99493.00;;;6.10
20103;BMP180;10210;52.284;9.892;2024-01-16T13:56:40;99497.00;;;6.10
20103;BMP180;10210;52.284;9.892;2024-01-16T13:59:06;99487.00;;;6.10
20103;BMP180;10210;52.284;9.892;2024-01-16T14:01:32;99494.00;;;6.00
20103;BMP180;10210;52.284;9.892;2024-01-16T14:03:58;99492.00;;;6.00
20103;BMP180;10210;52.284;9.892;2024-01-16T14:06:24;99481.00;;;6.00
20103;BMP180;10210;52.284;9.892;2024-01-16T14:08:50;99490.00;;;6.00
20103;BMP180;10210;52.284;9.892;2024-01-16T14:11:16;99492.00;;;6.10
20103;BMP180;10210;52.284;9.892;2024-01-16T14:13:42;99500.00;;;6.10
20103;BMP180;10210;52.284;9.892;2024-01-16T14:16:08;99498.00;;;6.10
20103;BMP180;10210;52.284;9.892;2024-01-16T14:18:34;99497.00;;;6.00
20103;BMP180;10210;52.284;9.892;2024-01-16T14:21:00;99496.00;;;6.00
20103;BMP180;10210;52.284;9.892;2024-01-16T14:23:25;99498.00;;;6.00
20103;BMP180;10210;52.284;9.892;2024-01-16T14:25:51;99510.00;;;6.00
20103;BMP180;10210;52.284;9.892;2024-01-16T14:28:16;99510.00;;;6.00
20103;BMP180;10210;52.284;9.892;2024-01-16T14:30:42;99509.00;;;6.00